Time;durP1;ratioP1;P1;durP2;ratioP2;P2;SDS_P1;SDS_P2;PMS_P1;PMS_P2;Temp;Humidity;BMP_temperature;BMP_pressure;BME280_temperature;BME280_humidity;BME280_pressure;Samples;Min_cycle;Max_cycle;Signal;HPM_P1;HPM_P2
2024/02/03 00:01:39;;;;;;;;;;;;;;;16.99;36.32;101660.72;4895209;29;1087;-49
2024/02/03 00:04:05;;;;;;;;;;;;;;;16.11;38.51;101664.03;4895866;29;1121;-47
2024/02/03 00:06:30;;;;;;;;;;;;;;;15.90;38.71;101666.88;4890090;29;991;-48
2024/02/03 00:08:56;;;;;;;;;;;;;;;17.59;35.56;101658.03;4884569;29;1910;-46
2024/02/03 00:11:22;;;;;;;;;;;;;;;16.20;38.31;101663.50;4902171;29;1034;-48
2024/02/03 00:13:47;;;;;;;;;;;;;;;15.78;39.16;101666.63;4901778;29;1201;-46
2024/02/03 00:16:13;;;;;;;;;;;;;;;16.76;37.29;101668.28;4895904;29;2244;-45
2024/02/03 00:18:41;;;;;;;;;;;;;;;16.59;37.07;101660.44;4901209;29;1003;-44
2024/02/03 00:21:07;;;;;;;;;;;;;;;15.76;38.68;101662.34;4883734;29;960;-48
2024/02/03 00:23:32;;;;;;;;;;;;;;;15.48;39.51;101664.69;4897777;29;1109;-47
2024/02/03 00:25:58;;;;;;;;;;;;;;;17.73;35.47;101675.75;4901773;29;1035;-49
2024/02/03 00:28:24;;;;;;;;;;;;;;;16.57;37.28;101667.63;4901395;29;1910;-49
2024/02/03 00:30:49;;;;;;;;;;;;;;;15.79;39.04;101675.44;4883317;29;1131;-47
2024/02/03 00:33:15;;;;;;;;;;;;;;;17.08;36.85;101667.28;4895513;29;922;-48
2024/02/03 00:35:40;;;;;;;;;;;;;;;16.94;36.39;101672.56;4882905;29;991;-50
2024/02/03 00:38:06;;;;;;;;;;;;;;;15.97;38.50;101670.91;4882961;29;1026;-49
2024/02/03 00:40:31;;;;;;;;;;;;;;;15.87;39.25;101669.72;4882639;29;1074;-47
2024/02/03 00:42:57;;;;;;;;;;;;;;;17.39;35.62;101659.25;4882820;29;1169;-47
2024/02/03 00:45:22;;;;;;;;;;;;;;;15.95;38.77;101658.69;4882918;29;2274;-46
2024/02/03 00:47:48;;;;;;;;;;;;;;;15.98;38.64;101655.88;4882834;29;1985;-48
2024/02/03 00:50:17;;;;;;;;;;;;;;;18.09;34.67;101648.69;4894944;29;1025;-47
2024/02/03 00:52:42;;;;;;;;;;;;;;;16.43;37.60;101652.50;4895026;29;1069;-49
2024/02/03 00:55:08;;;;;;;;;;;;;;;15.88;38.84;101644.91;4884306;29;1140;-47
2024/02/03 00:57:34;;;;;;;;;;;;;;;15.61;38.97;101646.34;4901203;29;1163;-48
2024/02/03 01:00:00;;;;;;;;;;;;;;;17.23;36.57;101652.22;4894819;29;1093;-48
2024/02/03 01:02:25;;;;;;;;;;;;;;;17.15;36.15;101646.50;4884485;29;1111;-46
2024/02/03 01:04:51;;;;;;;;;;;;;;;15.90;38.41;101643.88;4901324;29;1015;-46
2024/02/03 01:07:16;;;;;;;;;;;;;;;16.59;37.78;101640.03;4899772;29;1057;-50
2024/02/03 01:09:42;;;;;;;;;;;;;;;17.74;35.14;101642.91;4882187;29;1946;-48
2024/02/03 01:12:07;;;;;;;;;;;;;;;16.26;37.74;101641.91;4882825;29;1135;-45
2024/02/03 01:14:36;;;;;;;;;;;;;;;16.58;37.86;101640.13;4888818;29;1066;-51
2024/02/03 01:17:03;;;;;;;;;;;;;;;18.17;34.21;101638.44;4894894;29;983;-44
2024/02/03 01:19:29;;;;;;;;;;;;;;;16.28;37.80;101640.00;4888872;29;1019;-49
2024/02/03 01:21:55;;;;;;;;;;;;;;;15.98;38.35;101638.16;4900315;29;1050;-46
2024/02/03 01:24:20;;;;;;;;;;;;;;;17.22;35.89;101631.03;4900729;29;1072;-48
2024/02/03 01:26:46;;;;;;;;;;;;;;;15.98;38.37;101626.69;4888101;29;1042;-48
2024/02/03 01:29:12;;;;;;;;;;;;;;;15.71;38.74;101628.13;4882304;29;1971;-44
2024/02/03 01:31:37;;;;;;;;;;;;;;;16.33;38.11;101631.78;4884097;29;999;-47
2024/02/03 01:34:03;;;;;;;;;;;;;;;17.85;34.87;101625.38;4882091;29;1042;-46
2024/02/03 01:36:28;;;;;;;;;;;;;;;16.16;38.25;101628.28;4894809;29;1046;-49
2024/02/03 01:38:54;;;;;;;;;;;;;;;16.50;38.01;101622.84;4888400;29;1102;-48
2024/02/03 01:41:19;;;;;;;;;;;;;;;17.53;35.29;101625.63;4888376;29;1039;-46
2024/02/03 01:43:45;;;;;;;;;;;;;;;16.06;38.31;101613.00;4884698;29;1035;-50
2024/02/03 01:46:11;;;;;;;;;;;;;;;16.07;38.39;101618.22;4887643;29;2197;-49
2024/02/03 01:48:37;;;;;;;;;;;;;;;17.40;35.60;101618.41;4900410;29;1907;-48
2024/02/03 01:51:02;;;;;;;;;;;;;;;16.14;38.27;101624.03;4900860;29;1123;-47
2024/02/03 01:53:28;;;;;;;;;;;;;;;17.23;36.53;101615.00;4894307;29;1130;-50
2024/02/03 01:55:53;;;;;;;;;;;;;;;16.69;37.22;101618.22;4898923;29;1129;-47
2024/02/03 01:58:20;;;;;;;;;;;;;;;15.88;38.51;101616.56;4903222;29;1126;-47
2024/02/03 02:00:46;;;;;;;;;;;;;;;16.02;38.80;101615.81;4900327;29;976;-49
2024/02/03 02:03:12;;;;;;;;;;;;;;;17.26;36.04;101619.28;4915057;29;1070;-50
2024/02/03 02:05:38;;;;;;;;;;;;;;;16.01;38.72;101610.59;4888000;29;983;-47
2024/02/03 02:08:03;;;;;;;;;;;;;;;15.82;39.13;101610.72;4896852;29;1918;-47
2024/02/03 02:10:29;;;;;;;;;;;;;;;17.96;35.01;101614.91;4894686;29;1070;-48
2024/02/03 02:12:55;;;;;;;;;;;;;;;16.68;37.22;101617.41;4882434;29;1023;-47
2024/02/03 02:15:21;;;;;;;;;;;;;;;15.87;38.77;101616.66;4890756;29;2202;-50
2024/02/03 02:17:46;;;;;;;;;;;;;;;16.65;37.82;101610.44;4904401;29;1082;-49
2024/02/03 02:20:12;;;;;;;;;;;;;;;17.37;35.64;101616.81;4903458;29;1136;-46
2024/02/03 02:22:38;;;;;;;;;;;;;;;16.00;38.31;101620.34;4885857;29;1019;-48
2024/02/03 02:25:04;;;;;;;;;;;;;;;18.02;34.85;101624.28;4898342;29;1004;-45
2024/02/03 02:27:33;;;;;;;;;;;;;;;16.77;37.21;101615.97;4897745;29;1070;-49
2024/02/03 02:29:58;;;;;;;;;;;;;;;16.67;37.50;101620.97;4886071;29;1907;-46
2024/02/03 02:32:24;;;;;;;;;;;;;;;18.13;34.38;101612.97;4897470;29;1006;-45
2024/02/03 02:34:49;;;;;;;;;;;;;;;16.49;37.69;101615.81;4897722;29;1134;-45
2024/02/03 02:37:15;;;;;;;;;;;;;;;16.36;38.03;101615.69;4891703;29;1030;-49
2024/02/03 02:39:40;;;;;;;;;;;;;;;17.92;34.85;101610.72;4904262;29;1186;-50
2024/02/03 02:42:06;;;;;;;;;;;;;;;16.30;37.71;101610.72;4903945;29;1159;-49
2024/02/03 02:44:32;;;;;;;;;;;;;;;15.91;38.72;101610.25;4898533;29;990;-47
2024/02/03 02:46:58;;;;;;;;;;;;;;;15.67;39.13;101611.53;4892271;29;2315;-51
2024/02/03 02:49:23;;;;;;;;;;;;;;;15.70;39.03;101613.13;4903027;29;1899;-50
2024/02/03 02:51:49;;;;;;;;;;;;;;;17.89;35.01;101605.59;4903587;29;1093;-51
2024/02/03 02:54:14;;;;;;;;;;;;;;;16.23;37.87;101604.91;4890676;29;1034;-48
2024/02/03 02:56:40;;;;;;;;;;;;;;;15.62;38.93;101604.75;4891666;29;1024;-50
2024/02/03 02:59:05;;;;;;;;;;;;;;;16.80;37.18;101602.50;4903205;29;1062;-48
2024/02/03 03:01:31;;;;;;;;;;;;;;;17.90;34.74;101603.78;4903174;29;1184;-49
2024/02/03 03:03:57;;;;;;;;;;;;;;;16.31;37.96;101603.63;4891904;29;1118;-47
2024/02/03 03:06:22;;;;;;;;;;;;;;;15.72;38.75;101600.66;4897486;29;1035;-48
2024/02/03 03:08:48;;;;;;;;;;;;;;;17.55;35.78;101599.78;4895937;29;1972;-49
2024/02/03 03:11:13;;;;;;;;;;;;;;;16.64;36.88;101598.13;4898076;29;1200;-46
2024/02/03 03:13:39;;;;;;;;;;;;;;;15.82;38.80;101594.81;4896783;29;1082;-47
2024/02/03 03:16:06;;;;;;;;;;;;;;;16.21;38.49;101597.97;4903268;29;1141;-45
2024/02/03 03:18:32;;;;;;;;;;;;;;;17.89;34.92;101602.06;4891638;29;1085;-48
2024/02/03 03:21:00;;;;;;;;;;;;;;;16.12;38.13;101588.75;4890857;29;1167;-46
2024/02/03 03:23:26;;;;;;;;;;;;;;;16.47;37.96;101585.84;4891042;29;1051;-47
2024/02/03 03:25:53;;;;;;;;;;;;;;;17.42;35.30;101589.91;4903150;29;1023;-47
2024/02/03 03:28:18;;;;;;;;;;;;;;;16.04;38.39;101575.91;4890682;29;1986;-50
2024/02/03 03:30:44;;;;;;;;;;;;;;;15.72;38.71;101579.44;4890938;29;1055;-50
2024/02/03 03:33:09;;;;;;;;;;;;;;;17.90;35.00;101579.84;4895947;29;1066;-49
2024/02/03 03:35:35;;;;;;;;;;;;;;;16.40;37.44;101577.38;4902985;29;1151;-45
2024/02/03 03:38:00;;;;;;;;;;;;;;;16.66;37.45;101576.78;4902958;29;1105;-48
2024/02/03 03:40:26;;;;;;;;;;;;;;;17.32;35.66;101575.47;4884654;29;1105;-51
2024/02/03 03:42:51;;;;;;;;;;;;;;;16.08;38.32;101573.97;4896709;29;1035;-48
2024/02/03 03:45:17;;;;;;;;;;;;;;;15.77;38.91;101572.06;4890430;29;1050;-47
2024/02/03 03:47:43;;;;;;;;;;;;;;;15.94;38.84;101572.91;4891025;29;1981;-48
2024/02/03 03:50:08;;;;;;;;;;;;;;;17.33;35.72;101574.53;4901892;29;1076;-48
2024/02/03 03:52:34;;;;;;;;;;;;;;;15.89;38.34;101567.88;4890787;29;1118;-50
2024/02/03 03:55:00;;;;;;;;;;;;;;;17.97;34.74;101565.16;4896680;29;1161;-46
2024/02/03 03:57:26;;;;;;;;;;;;;;;16.94;36.05;101558.28;4888318;29;1159;-50
2024/02/03 03:59:51;;;;;;;;;;;;;;;16.06;37.99;101551.94;4889131;29;1518;-51
2024/02/03 04:02:18;;;;;;;;;;;;;;;16.91;36.81;101545.19;4903239;29;1130;-49
2024/02/03 04:04:44;;;;;;;;;;;;;;;17.45;35.34;101548.97;4884382;29;1139;-46
2024/02/03 04:07:09;;;;;;;;;;;;;;;16.05;37.82;101548.44;4895449;29;1078;-46
2024/02/03 04:09:35;;;;;;;;;;;;;;;16.51;37.59;101544.88;4893979;29;1970;-48
2024/02/03 04:12:00;;;;;;;;;;;;;;;18.07;34.23;101531.63;4883536;29;1174;-49
2024/02/03 04:14:26;;;;;;;;;;;;;;;16.30;37.75;101540.84;4896235;29;1039;-49
2024/02/03 04:16:51;;;;;;;;;;;;;;;15.78;38.57;101541.94;4895220;29;1129;-44
2024/02/03 04:19:17;;;;;;;;;;;;;;;15.66;38.62;101546.13;4902373;29;1130;-47
2024/02/03 04:21:42;;;;;;;;;;;;;;;16.76;37.13;101546.06;4884243;29;1240;-48
2024/02/03 04:24:08;;;;;;;;;;;;;;;17.29;35.65;101538.44;4895313;29;1118;-50
2024/02/03 04:26:33;;;;;;;;;;;;;;;16.15;37.85;101544.31;4916615;29;1042;-50
2024/02/03 04:28:59;;;;;;;;;;;;;;;18.30;34.17;101539.06;4902055;29;1906;-49
2024/02/03 04:31:24;;;;;;;;;;;;;;;16.93;36.14;101543.28;4901546;29;1162;-49
2024/02/03 04:33:50;;;;;;;;;;;;;;;16.12;38.08;101539.19;4897678;29;1307;-50
2024/02/03 04:36:18;;;;;;;;;;;;;;;15.71;38.62;101524.69;4882647;29;1129;-48
2024/02/03 04:38:43;;;;;;;;;;;;;;;17.28;36.14;101528.78;4895616;29;1139;-44
2024/02/03 04:41:09;;;;;;;;;;;;;;;16.33;37.34;101522.91;4883692;29;1126;-46
2024/02/03 04:43:35;;;;;;;;;;;;;;;15.77;38.67;101519.00;4897302;29;1362;-47
2024/02/03 04:46:00;;;;;;;;;;;;;;;17.51;35.52;101516.66;4883037;29;1019;-44
2024/02/03 04:48:26;;;;;;;;;;;;;;;16.50;36.95;101510.41;4895467;29;1915;-44
2024/02/03 04:50:51;;;;;;;;;;;;;;;15.74;38.56;101505.94;4893287;29;1023;-47
2024/02/03 04:53:17;;;;;;;;;;;;;;;17.27;36.04;101509.28;4889297;29;1088;-45
2024/02/03 04:55:42;;;;;;;;;;;;;;;16.51;37.18;101502.38;4890927;29;1015;-45
2024/02/03 04:58:08;;;;;;;;;;;;;;;15.82;38.55;101504.63;4899741;29;1198;-47
2024/02/03 05:00:33;;;;;;;;;;;;;;;17.98;34.56;101508.31;4901730;29;1667;-46
2024/02/03 05:02:59;;;;;;;;;;;;;;;16.54;37.10;101519.94;4896231;29;1053;-48
2024/02/03 05:05:25;;;;;;;;;;;;;;;15.78;38.50;101510.09;4882968;29;1066;-48
2024/02/03 05:07:50;;;;;;;;;;;;;;;17.32;35.88;101509.00;4898798;29;1906;-50
2024/02/03 05:10:17;;;;;;;;;;;;;;;17.57;34.96;101516.25;4900278;29;1197;-48
2024/02/03 05:12:42;;;;;;;;;;;;;;;16.23;37.47;101506.69;4900338;29;1089;-50
2024/02/03 05:15:08;;;;;;;;;;;;;;;15.77;38.96;101516.38;4890499;29;1058;-47
2024/02/03 05:17:33;;;;;;;;;;;;;;;17.95;34.52;101513.84;4900214;29;1103;-48
2024/02/03 05:19:59;;;;;;;;;;;;;;;17.66;35.02;101516.59;4890734;29;1165;-53
2024/02/03 05:22:24;;;;;;;;;;;;;;;17.01;36.15;101525.06;4899415;29;1084;-51
2024/02/03 05:24:50;;;;;;;;;;;;;;;16.61;36.74;101523.94;4901295;29;1027;-52
2024/02/03 05:27:15;;;;;;;;;;;;;;;16.40;36.97;101520.75;4900459;29;1137;-47
2024/02/03 05:29:41;;;;;;;;;;;;;;;16.22;37.48;101520.91;4900823;29;1911;-49
2024/02/03 05:32:07;;;;;;;;;;;;;;;15.95;38.00;101518.06;4895936;29;1038;-50
2024/02/03 05:34:32;;;;;;;;;;;;;;;15.82;38.20;101508.13;4892644;29;896;-50
2024/02/03 05:36:58;;;;;;;;;;;;;;;15.62;38.54;101501.31;4900549;29;1066;-47
2024/02/03 05:39:23;;;;;;;;;;;;;;;15.46;38.67;101504.84;4891313;29;1106;-47
2024/02/03 05:41:49;;;;;;;;;;;;;;;15.27;38.99;101502.34;4898616;29;1002;-51
2024/02/03 05:44:14;;;;;;;;;;;;;;;16.33;37.36;101500.84;4900702;29;1093;-48
2024/02/03 05:46:40;;;;;;;;;;;;;;;17.14;35.40;101493.28;4895339;29;1166;-45
2024/02/03 05:49:05;;;;;;;;;;;;;;;16.18;36.97;101499.94;4898197;29;2799;-50
2024/02/03 05:51:31;;;;;;;;;;;;;;;15.82;37.73;101494.00;4892844;29;1035;-46
2024/02/03 05:53:59;;;;;;;;;;;;;;;15.48;38.80;101502.09;4904915;29;991;-49
2024/02/03 05:56:24;;;;;;;;;;;;;;;15.45;38.84;101504.94;4904797;29;1124;-48
2024/02/03 05:58:50;;;;;;;;;;;;;;;16.94;35.96;101502.47;4893161;29;910;-48
2024/02/03 06:01:21;;;;;;;;;;;;;;;16.76;35.83;101500.88;4902676;29;1014;-50
2024/02/03 06:03:47;;;;;;;;;;;;;;;15.99;37.52;101487.75;4904622;29;1194;-48
2024/02/03 06:06:13;;;;;;;;;;;;;;;15.64;38.29;101496.78;4887321;29;1070;-48
2024/02/03 06:08:39;;;;;;;;;;;;;;;15.41;38.46;101496.28;4896830;29;1974;-46
2024/02/03 06:11:05;;;;;;;;;;;;;;;16.64;36.50;101493.66;4899750;29;1098;-50
2024/02/03 06:13:30;;;;;;;;;;;;;;;17.32;35.11;101495.69;4894081;29;1173;-47
2024/02/03 06:15:56;;;;;;;;;;;;;;;16.26;37.00;101501.22;4902593;29;1054;-47
2024/02/03 06:18:21;;;;;;;;;;;;;;;15.77;37.91;101495.13;4894771;29;2560;-48
2024/02/03 06:20:47;;;;;;;;;;;;;;;15.53;38.53;101505.34;4890043;29;1031;-46
2024/02/03 06:23:13;;;;;;;;;;;;;;;16.14;37.24;101510.75;4893453;29;1025;-47
2024/02/03 06:25:38;;;;;;;;;;;;;;;17.35;34.88;101503.50;4902195;29;1066;-48
2024/02/03 06:28:04;;;;;;;;;;;;;;;16.41;36.51;101498.56;4893990;29;2001;-44
2024/02/03 06:30:29;;;;;;;;;;;;;;;15.94;37.35;101495.09;4889862;29;1051;-48
2024/02/03 06:32:55;;;;;;;;;;;;;;;15.58;38.34;101497.97;4904189;29;1385;-49
2024/02/03 06:35:21;;;;;;;;;;;;;;;15.62;38.19;101499.53;4898623;29;1074;-45
2024/02/03 06:37:46;;;;;;;;;;;;;;;17.07;35.50;101506.06;4885332;29;1071;-50
2024/02/03 06:40:12;;;;;;;;;;;;;;;16.83;35.73;101508.47;4885123;29;1133;-47
2024/02/03 06:42:37;;;;;;;;;;;;;;;16.06;37.47;101498.88;4896266;29;1054;-48
2024/02/03 06:45:03;;;;;;;;;;;;;;;15.71;38.14;101503.47;4891885;29;1027;-48
2024/02/03 06:47:28;;;;;;;;;;;;;;;15.42;38.35;101498.00;4892944;29;2627;-48
2024/02/03 06:49:54;;;;;;;;;;;;;;;16.50;36.59;101510.41;4891087;29;1907;-48
2024/02/03 06:52:19;;;;;;;;;;;;;;;17.32;35.13;101511.66;4903931;29;1126;-49
2024/02/03 06:54:45;;;;;;;;;;;;;;;16.28;36.84;101506.44;4903451;29;1123;-50
2024/02/03 06:57:10;;;;;;;;;;;;;;;15.79;38.08;101510.97;4903019;29;1126;-49
2024/02/03 06:59:36;;;;;;;;;;;;;;;15.48;38.72;101512.72;4899038;29;1108;-49
2024/02/03 07:02:01;;;;;;;;;;;;;;;15.96;37.89;101511.78;4894880;29;1158;-50
2024/02/03 07:04:27;;;;;;;;;;;;;;;17.24;35.44;101509.50;4887175;29;1102;-45
2024/02/03 07:06:52;;;;;;;;;;;;;;;16.55;36.45;101499.53;4885225;29;1077;-48
2024/02/03 07:09:18;;;;;;;;;;;;;;;15.93;37.42;101498.69;4900995;29;1907;-46
2024/02/03 07:11:43;;;;;;;;;;;;;;;15.61;38.12;101508.44;4902912;29;867;-47
2024/02/03 07:14:09;;;;;;;;;;;;;;;15.31;38.82;101514.50;4887013;29;1189;-49
2024/02/03 07:16:34;;;;;;;;;;;;;;;16.81;36.28;101508.56;4894522;29;1015;-48
2024/02/03 07:19:00;;;;;;;;;;;;;;;17.36;35.08;101513.19;4892400;29;2416;-51
2024/02/03 07:21:26;;;;;;;;;;;;;;;16.37;36.78;101508.50;4903735;29;1651;-48
2024/02/03 07:23:51;;;;;;;;;;;;;;;15.84;37.86;101516.00;4902766;29;1030;-48
2024/02/03 07:26:17;;;;;;;;;;;;;;;15.50;38.36;101514.31;4892476;29;1046;-48
2024/02/03 07:28:42;;;;;;;;;;;;;;;15.88;37.84;101513.06;4896868;29;1970;-48
2024/02/03 07:31:08;;;;;;;;;;;;;;;17.23;35.30;101508.63;4894474;29;1023;-48
2024/02/03 07:33:33;;;;;;;;;;;;;;;16.53;36.31;101512.91;4890581;29;1085;-48
2024/02/03 07:35:59;;;;;;;;;;;;;;;15.91;37.55;101502.28;4898051;29;902;-51
2024/02/03 07:38:25;;;;;;;;;;;;;;;15.58;38.28;101495.31;4902965;29;1094;-51
2024/02/03 07:40:51;;;;;;;;;;;;;;;16.46;36.73;101496.50;4902616;29;1073;-51
2024/02/03 07:43:16;;;;;;;;;;;;;;;17.28;35.20;101494.19;4899337;29;1039;-51
2024/02/03 07:45:42;;;;;;;;;;;;;;;16.26;37.17;101493.25;4884217;29;995;-49
2024/02/03 07:48:07;;;;;;;;;;;;;;;15.78;38.12;101485.38;4891958;29;2446;-47
2024/02/03 07:50:33;;;;;;;;;;;;;;;15.60;38.55;101487.31;4902613;29;1025;-46
2024/02/03 07:52:58;;;;;;;;;;;;;;;15.93;37.70;101481.00;4902744;29;1030;-49
2024/02/03 07:55:24;;;;;;;;;;;;;;;17.28;35.27;101471.13;4903207;29;1158;-51
2024/02/03 07:57:49;;;;;;;;;;;;;;;16.61;36.25;101468.16;4901619;29;1126;-46
2024/02/03 08:00:15;;;;;;;;;;;;;;;15.93;37.80;101458.91;4895571;29;991;-48
2024/02/03 08:02:42;;;;;;;;;;;;;;;15.66;38.15;101476.34;4902375;29;1190;-45
2024/02/03 08:05:07;;;;;;;;;;;;;;;15.55;38.43;101485.75;4902912;29;970;-51
2024/02/03 08:07:33;;;;;;;;;;;;;;;17.02;35.91;101481.56;4902117;29;1154;-49
2024/02/03 08:09:58;;;;;;;;;;;;;;;16.97;35.40;101475.69;4902540;29;1915;-46
2024/02/03 08:12:24;;;;;;;;;;;;;;;16.19;37.14;101465.34;4898987;29;889;-49
2024/02/03 08:14:49;;;;;;;;;;;;;;;15.78;37.82;101461.50;4891780;29;1097;-48
2024/02/03 08:17:15;;;;;;;;;;;;;;;15.47;38.56;101457.94;4901584;29;2534;-47
2024/02/03 08:19:40;;;;;;;;;;;;;;;16.40;37.04;101449.03;4902004;29;1221;-52
2024/02/03 08:22:06;;;;;;;;;;;;;;;17.47;34.97;101443.31;4901951;29;1014;-49
2024/02/03 08:24:31;;;;;;;;;;;;;;;16.47;36.72;101450.38;4901599;29;1030;-49
2024/02/03 08:26:57;;;;;;;;;;;;;;;16.00;37.59;101458.47;4892389;29;1205;-46
2024/02/03 08:29:22;;;;;;;;;;;;;;;15.71;38.19;101461.00;4901723;29;1915;-45
2024/02/03 08:31:48;;;;;;;;;;;;;;;15.50;38.64;101468.38;4902355;29;979;-49
2024/02/03 08:34:13;;;;;;;;;;;;;;;16.63;36.41;101462.72;4901309;29;1129;-48
2024/02/03 08:36:39;;;;;;;;;;;;;;;17.40;34.96;101458.00;4896274;29;953;-48
2024/02/03 08:39:04;;;;;;;;;;;;;;;16.40;36.72;101463.19;4889098;29;1160;-47
2024/02/03 08:41:30;;;;;;;;;;;;;;;15.83;37.60;101461.25;4901611;29;1089;-50
2024/02/03 08:43:55;;;;;;;;;;;;;;;15.61;38.14;101459.81;4889591;29;1109;-46
2024/02/03 08:46:21;;;;;;;;;;;;;;;15.45;38.50;101454.56;4891410;29;1146;-46
2024/02/03 08:48:46;;;;;;;;;;;;;;;16.87;35.95;101440.88;4886312;29;2501;-47
2024/02/03 08:51:15;;;;;;;;;;;;;;;17.04;35.49;101444.25;4905176;29;1098;-51
2024/02/03 08:53:41;;;;;;;;;;;;;;;16.14;37.45;101441.72;4899679;29;1201;-51
2024/02/03 08:56:07;;;;;;;;;;;;;;;15.79;37.94;101434.91;4892856;29;1138;-48
2024/02/03 08:58:32;;;;;;;;;;;;;;;15.51;38.61;101420.59;4901168;29;1014;-48
2024/02/03 09:00:58;;;;;;;;;;;;;;;16.20;37.42;101424.56;4900968;29;925;-51
2024/02/03 09:03:23;;;;;;;;;;;;;;;17.37;35.07;101422.66;4901474;29;1137;-49
2024/02/03 09:05:49;;;;;;;;;;;;;;;16.50;36.34;101428.94;4889194;29;930;-50
2024/02/03 09:08:14;;;;;;;;;;;;;;;16.00;37.38;101423.97;4901786;29;2069;-49
2024/02/03 09:10:40;;;;;;;;;;;;;;;15.64;38.22;101419.88;4915853;29;1085;-52
2024/02/03 09:13:05;;;;;;;;;;;;;;;15.50;38.03;101418.88;4891192;29;998;-49
2024/02/03 09:15:31;;;;;;;;;;;;;;;16.79;36.29;101419.25;4900128;29;1011;-48
2024/02/03 09:17:56;;;;;;;;;;;;;;;17.13;35.27;101417.97;4883178;29;2443;-50
2024/02/03 09:20:22;;;;;;;;;;;;;;;16.25;36.93;101413.66;4883777;29;1095;-50
2024/02/03 09:22:47;;;;;;;;;;;;;;;15.81;37.59;101404.75;4893883;29;1092;-50
2024/02/03 09:25:13;;;;;;;;;;;;;;;15.55;38.17;101400.03;4900058;29;875;-49
2024/02/03 09:27:39;;;;;;;;;;;;;;;16.01;37.35;101393.84;4894258;29;1090;-49
2024/02/03 09:30:05;;;;;;;;;;;;;;;17.28;35.08;101394.03;4882648;29;1902;-46
2024/02/03 09:32:30;;;;;;;;;;;;;;;17.03;35.21;101384.97;4889407;29;1078;-51
2024/02/03 09:34:56;;;;;;;;;;;;;;;16.25;36.84;101376.50;4900222;29;1058;-49
2024/02/03 09:37:21;;;;;;;;;;;;;;;15.85;37.30;101367.34;4900268;29;852;-50
2024/02/03 09:39:47;;;;;;;;;;;;;;;15.54;38.03;101356.75;4901332;29;1062;-47
2024/02/03 09:42:12;;;;;;;;;;;;;;;16.23;37.04;101347.38;4901095;29;1077;-51
2024/02/03 09:44:38;;;;;;;;;;;;;;;17.42;34.86;101331.06;4900981;29;1106;-47
2024/02/03 09:47:03;;;;;;;;;;;;;;;16.45;36.45;101326.63;4893476;29;1058;-49
2024/02/03 09:49:29;;;;;;;;;;;;;;;15.99;37.59;101309.94;4899004;29;2984;-48
2024/02/03 09:51:54;;;;;;;;;;;;;;;15.70;37.91;101294.00;4894636;29;1102;-46
2024/02/03 09:54:20;;;;;;;;;;;;;;;15.69;38.16;101286.97;4895045;29;1022;-48
2024/02/03 09:56:46;;;;;;;;;;;;;;;17.11;35.29;101276.34;4889229;29;1115;-49
2024/02/03 09:59:12;;;;;;;;;;;;;;;17.19;35.04;101262.53;4896349;29;1157;-44
2024/02/03 10:01:38;;;;;;;;;;;;;;;16.24;36.86;101272.13;4895480;29;1193;-50
2024/02/03 10:04:03;;;;;;;;;;;;;;;15.86;37.80;101270.03;4900164;29;1142;-46
2024/02/03 10:06:29;;;;;;;;;;;;;;;15.52;38.26;101263.19;4900096;29;1462;-46
2024/02/03 10:08:54;;;;;;;;;;;;;;;15.45;38.50;101267.13;4900283;29;1903;-46
2024/02/03 10:11:20;;;;;;;;;;;;;;;16.75;35.93;101253.84;4899767;29;1110;-46
2024/02/03 10:13:49;;;;;;;;;;;;;;;17.47;34.67;101255.31;4890961;29;1141;-47
2024/02/03 10:16:15;;;;;;;;;;;;;;;16.45;36.41;101255.75;4900145;29;1046;-45
2024/02/03 10:18:41;;;;;;;;;;;;;;;15.89;37.47;101252.13;4888584;29;2759;-48
2024/02/03 10:21:06;;;;;;;;;;;;;;;15.64;37.98;101253.63;4885752;29;1035;-46
2024/02/03 10:23:32;;;;;;;;;;;;;;;15.45;38.23;101245.09;4914268;29;1209;-47
2024/02/03 10:26:00;;;;;;;;;;;;;;;16.48;36.45;101231.66;4900723;29;1058;-47
2024/02/03 10:28:26;;;;;;;;;;;;;;;17.52;34.41;101227.56;4892292;29;1974;-49
2024/02/03 10:30:52;;;;;;;;;;;;;;;16.64;36.23;101220.03;4889261;29;1034;-43
2024/02/03 10:33:17;;;;;;;;;;;;;;;16.13;36.90;101213.56;4899932;29;1094;-48
2024/02/03 10:35:43;;;;;;;;;;;;;;;15.69;37.72;101200.31;4900526;29;1046;-46
2024/02/03 10:38:08;;;;;;;;;;;;;;;15.40;38.16;101200.28;4897882;29;1194;-48
2024/02/03 10:40:34;;;;;;;;;;;;;;;16.76;36.03;101194.47;4897488;29;1071;-45
2024/02/03 10:43:00;;;;;;;;;;;;;;;17.41;34.59;101189.25;4903701;29;1093;-46
2024/02/03 10:45:25;;;;;;;;;;;;;;;16.24;36.62;101189.84;4892366;29;1208;-47
2024/02/03 10:47:51;;;;;;;;;;;;;;;15.84;37.57;101187.88;4888601;29;2616;-46
2024/02/03 10:50:17;;;;;;;;;;;;;;;15.63;38.12;101187.44;4907847;29;1899;-45
2024/02/03 10:52:43;;;;;;;;;;;;;;;15.38;38.54;101191.59;4901693;29;1150;-47
2024/02/03 10:55:09;;;;;;;;;;;;;;;16.70;36.13;101189.56;4907198;29;1148;-45
2024/02/03 10:57:34;;;;;;;;;;;;;;;17.35;34.59;101179.88;4898782;29;1074;-48
2024/02/03 11:00:01;;;;;;;;;;;;;;;16.27;36.61;101179.00;4897050;29;1169;-48
2024/02/03 11:02:26;;;;;;;;;;;;;;;15.85;37.18;101175.47;4911944;29;1051;-42
2024/02/03 11:04:52;;;;;;;;;;;;;;;15.56;38.24;101173.69;4891847;29;1058;-46
2024/02/03 11:07:27;;;;;;;;;;;;;;;15.41;38.55;101172.84;4890822;29;1118;-47
2024/02/03 11:10:02;;;;;;;;;;;;;;;16.87;35.71;101172.47;4892934;29;1986;-46
2024/02/03 11:12:36;;;;;;;;;;;;;;;17.09;35.03;101177.22;4897814;29;1058;-44
2024/02/03 11:15:07;;;;;;;;;;;;;;;16.18;36.69;101181.41;4894465;29;1077;-48
2024/02/03 11:17:33;;;;;;;;;;;;;;;15.81;37.53;101176.59;4891023;29;2419;-48
2024/02/03 11:20:03;;;;;;;;;;;;;;;15.48;38.34;101171.50;4903934;29;1173;-46
2024/02/03 11:22:29;;;;;;;;;;;;;;;15.88;37.39;101162.84;4887373;29;1059;-48
2024/02/03 11:24:54;;;;;;;;;;;;;;;17.18;35.03;101169.59;4895689;29;1034;-50
2024/02/03 11:27:20;;;;;;;;;;;;;;;16.71;35.71;101164.69;4898703;29;1086;-47
2024/02/03 11:29:45;;;;;;;;;;;;;;;15.98;36.98;101154.31;4884667;29;1978;-44
2024/02/03 11:32:14;;;;;;;;;;;;;;;15.72;37.45;101154.16;4902490;29;1178;-49
2024/02/03 11:34:40;;;;;;;;;;;;;;;15.46;38.26;101156.66;4902816;29;1136;-49
2024/02/03 11:37:06;;;;;;;;;;;;;;;16.75;35.73;101145.78;4902311;29;1540;-48
2024/02/03 11:39:37;;;;;;;;;;;;;;;16.99;35.22;101141.56;4902725;29;1070;-45
2024/02/03 11:42:03;;;;;;;;;;;;;;;16.09;36.63;101119.16;4902839;29;1109;-47
2024/02/03 11:44:38;;;;;;;;;;;;;;;15.75;37.59;101138.91;4890100;29;1073;-48
2024/02/03 11:47:05;;;;;;;;;;;;;;;15.52;37.84;101130.59;4902673;29;1129;-46
2024/02/03 11:49:31;;;;;;;;;;;;;;;16.93;35.44;101134.03;4905839;29;2850;-51
2024/02/03 11:52:00;;;;;;;;;;;;;;;17.08;35.09;101114.34;4895673;29;1186;-49
2024/02/03 11:54:26;;;;;;;;;;;;;;;16.26;36.44;101118.91;4898098;29;1214;-45
2024/02/03 11:56:51;;;;;;;;;;;;;;;15.86;37.46;101113.50;4902418;29;1124;-46
2024/02/03 11:59:29;;;;;;;;;;;;;;;15.58;37.81;101112.59;4902400;29;1119;-49
2024/02/03 12:01:55;;;;;;;;;;;;;;;16.10;36.84;101110.25;4888514;29;923;-45
2024/02/03 12:04:21;;;;;;;;;;;;;;;17.31;34.68;101109.28;4883970;29;1090;-48
2024/02/03 12:06:46;;;;;;;;;;;;;;;16.65;35.64;101103.06;4884045;29;1015;-49
2024/02/03 12:09:12;;;;;;;;;;;;;;;16.02;36.94;101092.16;4900844;29;1978;-49
2024/02/03 12:11:37;;;;;;;;;;;;;;;15.66;37.62;101094.41;4902356;29;1182;-49
2024/02/03 12:14:04;;;;;;;;;;;;;;;15.42;37.98;101087.91;4888948;29;1042;-44
2024/02/03 12:16:30;;;;;;;;;;;;;;;16.44;36.27;101077.94;4902645;29;1015;-49
2024/02/03 12:18:55;;;;;;;;;;;;;;;17.44;34.26;101089.78;4889555;29;2509;-46
2024/02/03 12:21:21;;;;;;;;;;;;;;;16.53;35.94;101080.81;4902646;29;1131;-47
2024/02/03 12:23:46;;;;;;;;;;;;;;;15.96;37.21;101068.66;4901802;29;1154;-48
2024/02/03 12:26:12;;;;;;;;;;;;;;;15.68;37.69;101073.97;4896434;29;929;-45
2024/02/03 12:28:38;;;;;;;;;;;;;;;15.43;37.85;101065.75;4900940;29;1978;-47
2024/02/03 12:31:04;;;;;;;;;;;;;;;16.81;35.85;101075.47;4907655;29;1051;-49
2024/02/03 12:33:29;;;;;;;;;;;;;;;17.50;34.25;101068.91;4886255;29;1095;-44
2024/02/03 12:35:55;;;;;;;;;;;;;;;16.58;35.68;101064.56;4893229;29;1208;-45
2024/02/03 12:38:21;;;;;;;;;;;;;;;16.00;36.83;101059.56;4897785;29;1117;-47
2024/02/03 12:40:47;;;;;;;;;;;;;;;15.76;37.64;101061.06;4892262;29;1084;-49